| time (UTC) | temp F | wind direction | speed knots | gust knots | rain 1hr in | rain 24hr in | rain mn in | humidity % | barometer mb |
| 20260510032131 | 54 | 293 | 0.0 | 0.0 | 0.07 | 0.78 | 0.78 | 98 | 1007.8 |
| 20260510031626 | 54 | 137 | 0.0 | 0.9 | 0.12 | 0.78 | 0.78 | 98 | 1008.0 |
| 20260510031123 | 54 | 257 | 0.9 | 1.7 | 0.17 | 0.77 | 0.77 | 98 | 1008.8 |
| 20260510030617 | 54 | 295 | 3.5 | 5.2 | 0.26 | 0.76 | 0.76 | 98 | 1009.4 |
| 20260510030115 | 54 | 204 | 3.5 | 7.0 | 0.14 | 0.74 | 0.74 | 98 | 1008.7 |
| 20260510025612 | 53 | 294 | 1.7 | 2.6 | 0.00 | 0.72 | 0.72 | 98 | 1008.7 |
| 20260510025110 | 53 | 228 | 0.0 | 0.9 | 0.00 | 0.72 | 0.72 | 98 | 1007.8 |
| 20260510024606 | 53 | 224 | 0.0 | 0.9 | 0.00 | 0.72 | 0.72 | 98 | 1007.7 |
| 20260510024103 | 53 | 248 | 0.0 | 0.0 | 0.00 | 0.72 | 0.72 | 98 | 1007.8 |
| 20260510023559 | 53 | 254 | 0.0 | 0.0 | 0.00 | 0.72 | 0.72 | 98 | 1007.8 |
| 20260510023057 | 52 | 241 | 0.0 | 0.0 | 0.00 | 0.72 | 0.72 | 97 | 1007.9 |
| 20260510022555 | 53 | 237 | 0.0 | 0.0 | 0.00 | 0.72 | 0.72 | 97 | 1007.6 |
| 20260510022049 | 53 | 241 | 0.0 | 0.0 | 0.00 | 0.72 | 0.72 | 97 | 1007.5 |
| 20260510021541 | 53 | 209 | 0.0 | 0.0 | 0.00 | 0.72 | 0.72 | 97 | 1007.6 |
| 20260510021038 | 53 | 231 | 0.0 | 0.0 | 0.00 | 0.72 | 0.72 | 97 | 1007.6 |
| 20260510020532 | 53 | 228 | 0.0 | 0.0 | 0.00 | 0.72 | 0.72 | 97 | 1007.9 |
| 20260510020028 | 53 | 246 | 0.0 | 0.0 | 0.00 | 0.72 | 0.72 | 97 | 1007.9 |
| 20260510015524 | 53 | 246 | 0.0 | 0.0 | 0.00 | 0.72 | 0.72 | 97 | 1007.8 |
| 20260510015020 | 53 | 250 | 0.0 | 0.0 | 0.00 | 0.72 | 0.72 | 97 | 1007.6 |
| 20260510014517 | 53 | 235 | 0.0 | 0.0 | 0.00 | 0.72 | 0.72 | 96 | 1007.6 |
| 20260510014014 | 53 | 235 | 0.0 | 0.0 | 0.00 | 0.72 | 0.72 | 96 | 1007.6 |
| 20260510013509 | 53 | 234 | 0.0 | 0.0 | 0.00 | 0.72 | 0.72 | 96 | 1007.6 |
| 20260510013005 | 54 | 242 | 0.0 | 0.0 | 0.00 | 0.72 | 0.72 | 96 | 1007.8 |
| 20260510012459 | 54 | 242 | 0.0 | 0.0 | 0.00 | 0.72 | 0.72 | 96 | 1007.6 |
| 20260510011955 | 54 | 239 | 0.0 | 0.0 | 0.00 | 0.72 | 0.72 | 96 | 1007.7 |
| 20260510011449 | 54 | 239 | 0.0 | 0.0 | 0.00 | 0.72 | 0.72 | 96 | 1007.4 |
| 20260510010946 | 55 | 242 | 0.0 | 0.0 | 0.00 | 0.72 | 0.72 | 96 | 1007.2 |
| 20260510010443 | 55 | 253 | 1.7 | 1.7 | 0.00 | 0.72 | 0.72 | 96 | 1007.2 |
| 20260510005940 | 55 | 236 | 0.0 | 1.7 | 0.00 | 0.72 | 0.72 | 96 | 1007.1 |
| 20260510005436 | 55 | 233 | 0.9 | 0.9 | 0.00 | 0.72 | 0.72 | 96 | 1007.2 |
| 20260510004933 | 55 | 237 | 0.0 | 0.0 | 0.00 | 0.72 | 0.72 | 96 | 1007.2 |
| 20260510004431 | 55 | 226 | 0.9 | 1.7 | 0.00 | 0.72 | 0.72 | 96 | 1007.0 |
| 20260510003928 | 55 | 244 | 0.9 | 1.7 | 0.00 | 0.72 | 0.72 | 96 | 1007.2 |
| 20260510003425 | 54 | 251 | 3.5 | 5.2 | 0.00 | 0.72 | 0.72 | 96 | 1007.0 |
| 20260510002924 | 54 | 227 | 0.9 | 1.7 | 0.00 | 0.72 | 0.72 | 96 | 1007.3 |
| 20260510002416 | 54 | 228 | 0.9 | 0.9 | 0.00 | 0.72 | 0.72 | 96 | 1007.3 |
| 20260510001912 | 54 | 202 | 1.7 | 1.7 | 0.05 | 0.72 | 0.72 | 96 | 1007.3 |
| 20260510001410 | 54 | 236 | 1.7 | 1.7 | 0.12 | 0.72 | 0.72 | 95 | 1007.5 |
| 20260510000907 | 54 | 255 | 0.0 | 5.2 | 0.12 | 0.71 | 0.71 | 95 | 1007.3 |
| 20260510000404 | 54 | 234 | 2.6 | 3.5 | 0.28 | 0.70 | 0.70 | 95 | 1007.4 |
| 20260509235900 | 53 | 257 | 3.5 | 6.1 | 0.42 | 0.69 | 0.69 | 94 | 1007.6 |
| 20260509235357 | 53 | 304 | 1.7 | 2.6 | 0.42 | 0.64 | 0.64 | 93 | 1007.5 |
| 20260509234853 | 53 | 283 | 1.7 | 5.2 | 0.85 | 0.61 | 0.61 | 92 | 1007.4 |
| 20260509234350 | 53 | 205 | 0.0 | 1.7 | 1.44 | 0.58 | 0.58 | 91 | 1007.1 |
| 20260509233848 | 54 | 277 | 6.1 | 13.0 | 1.02 | 0.47 | 0.47 | 87 | 1007.5 |
| 20260509233345 | 59 | 334 | 10.4 | 20.0 | 0.05 | 0.31 | 0.31 | 78 | 1006.9 |
| 20260509232841 | 66 | 280 | 7.0 | 9.6 | 0.00 | 0.30 | 0.30 | 61 | 1006.6 |
| 20260509232339 | 67 | 278 | 1.7 | 5.2 | 0.00 | 0.30 | 0.30 | 53 | 1005.0 |
| 20260509231834 | 67 | 236 | 1.7 | 1.7 | 0.00 | 0.30 | 0.30 | 52 | 1005.0 |
| 20260509231332 | 67 | 206 | 2.6 | 7.0 | 0.00 | 0.30 | 0.30 | 53 | 1005.1 |
| 20260509230829 | 67 | 218 | 2.6 | 5.2 | 0.00 | 0.30 | 0.30 | 52 | 1004.9 |
| 20260509230326 | 67 | 270 | 0.9 | 5.2 | 0.00 | 0.30 | 0.30 | 52 | 1004.8 |
| 20260509225821 | 68 | 214 | 4.3 | 6.1 | 0.00 | 0.30 | 0.30 | 51 | 1005.1 |
| 20260509225318 | 68 | 266 | 2.6 | 6.1 | 0.00 | 0.30 | 0.30 | 51 | 1004.5 |
| 20260509224814 | 68 | 197 | 0.9 | 7.0 | 0.00 | 0.30 | 0.30 | 52 | 1004.5 |
| 20260509224311 | 68 | 320 | 1.7 | 7.0 | 0.00 | 0.30 | 0.30 | 50 | 1004.7 |
| 20260509223807 | 68 | 258 | 3.5 | 8.7 | 0.00 | 0.30 | 0.30 | 50 | 1004.9 |
| 20260509223305 | 68 | 243 | 3.5 | 8.7 | 0.00 | 0.30 | 0.30 | 51 | 1004.5 |
| 20260509222801 | 69 | 247 | 5.2 | 7.0 | 0.00 | 0.30 | 0.30 | 49 | 1004.6 |
| 20260509222257 | 69 | 229 | 3.5 | 8.7 | 0.00 | 0.30 | 0.30 | 48 | 1004.6 |
| 20260509221753 | 70 | 250 | 7.0 | 11.3 | 0.00 | 0.30 | 0.30 | 48 | 1004.6 |
| 20260509221249 | 70 | 202 | 1.7 | 6.1 | 0.00 | 0.30 | 0.30 | 48 | 1004.7 |
| 20260509220744 | 70 | 196 | 4.3 | 12.2 | 0.00 | 0.30 | 0.30 | 49 | 1004.7 |
| 20260509220236 | 70 | 216 | 6.1 | 7.8 | 0.00 | 0.30 | 0.30 | 48 | 1004.2 |
| 20260509215731 | 70 | 225 | 5.2 | 11.3 | 0.00 | 0.30 | 0.30 | 49 | 1004.3 |
| 20260509215228 | 70 | 177 | 6.1 | 8.7 | 0.00 | 0.30 | 0.30 | 49 | 1004.2 |
| 20260509214725 | 70 | 185 | 4.3 | 6.1 | 0.00 | 0.30 | 0.30 | 49 | 1004.3 |
| 20260509214222 | 70 | 237 | 7.8 | 13.0 | 0.00 | 0.30 | 0.30 | 49 | 1004.2 |
| 20260509213719 | 70 | 258 | 5.2 | 11.3 | 0.00 | 0.30 | 0.30 | 49 | 1004.2 |
| 20260509213214 | 70 | 206 | 3.5 | 7.8 | 0.00 | 0.30 | 0.30 | 50 | 1004.6 |
| 20260509212712 | 70 | 231 | 7.0 | 8.7 | 0.00 | 0.30 | 0.30 | 49 | 1004.5 |
| 20260509212208 | 70 | 273 | 5.2 | 12.2 | 0.00 | 0.30 | 0.30 | 48 | 1004.6 |
| 20260509211704 | 70 | 217 | 1.7 | 13.0 | 0.00 | 0.30 | 0.30 | 49 | 1004.6 |
| 20260509211156 | 70 | 227 | 1.7 | 8.7 | 0.00 | 0.30 | 0.30 | 50 | 1004.7 |
| 20260509210652 | 69 | 233 | 5.2 | 6.1 | 0.00 | 0.30 | 0.30 | 51 | 1005.0 |
| 20260509210144 | 70 | 163 | 2.6 | 2.6 | 0.00 | 0.30 | 0.30 | 53 | 1004.8 |
| 20260509205639 | 69 | 282 | 0.9 | 2.6 | 0.00 | 0.30 | 0.30 | 53 | 1004.8 |
| 20260509205138 | 69 | 236 | 3.5 | 7.0 | 0.00 | 0.30 | 0.30 | 52 | 1005.0 |
| 20260509204630 | 70 | 186 | 3.5 | 9.6 | 0.00 | 0.30 | 0.30 | 51 | 1005.1 |
| 20260509204126 | 70 | 232 | 4.3 | 9.6 | 0.00 | 0.30 | 0.30 | 49 | 1005.0 |
| 20260509203622 | 70 | 164 | 5.2 | 13.0 | 0.00 | 0.30 | 0.30 | 48 | 1005.0 |
| 20260509203121 | 71 | 230 | 7.0 | 9.6 | 0.00 | 0.30 | 0.30 | 47 | 1005.1 |
| 20260509202620 | 71 | 270 | 6.1 | 7.8 | 0.00 | 0.30 | 0.30 | 49 | 1005.2 |
| 20260509202115 | 69 | 201 | 1.7 | 8.7 | 0.00 | 0.30 | 0.30 | 53 | 1005.2 |
| 20260509201616 | 69 | 248 | 6.1 | 7.8 | 0.00 | 0.30 | 0.30 | 50 | 1005.7 |
| 20260509201114 | 70 | 264 | 5.2 | 6.1 | 0.00 | 0.30 | 0.30 | 52 | 1005.1 |
| 20260509200609 | 69 | 204 | 3.5 | 7.8 | 0.00 | 0.30 | 0.30 | 52 | 1005.6 |
| 20260509200104 | 69 | 208 | 1.7 | 8.7 | 0.00 | 0.30 | 0.30 | 54 | 1005.6 |
| 20260509195600 | 68 | 237 | 4.3 | 11.3 | 0.00 | 0.30 | 0.30 | 54 | 1005.8 |
| 20260509195050 | 69 | 239 | 7.0 | 8.7 | 0.00 | 0.30 | 0.30 | 52 | 1005.9 |
| 20260509194549 | 68 | 293 | 2.6 | 7.8 | 0.00 | 0.30 | 0.30 | 57 | 1006.0 |
| 20260509194048 | 68 | 222 | 3.5 | 7.0 | 0.00 | 0.30 | 0.30 | 53 | 1006.2 |
| 20260509193542 | 67 | 197 | 3.5 | 9.6 | 0.00 | 0.30 | 0.30 | 53 | 1006.0 |
| 20260509193039 | 66 | 204 | 3.5 | 7.8 | 0.00 | 0.30 | 0.30 | 55 | 1006.3 |
| 20260509192536 | 66 | 287 | 1.7 | 5.2 | 0.00 | 0.30 | 0.30 | 57 | 1006.4 |
| 20260509192030 | 66 | 214 | 1.7 | 8.7 | 0.00 | 0.30 | 0.30 | 54 | 1006.3 |
| 20260509191525 | 67 | 243 | 6.1 | 13.0 | 0.00 | 0.30 | 0.30 | 53 | 1006.6 |
| 20260509191021 | 68 | 287 | 3.5 | 7.0 | 0.00 | 0.30 | 0.30 | 56 | 1006.6 |
| 20260509190518 | 67 | 208 | 5.2 | 7.8 | 0.00 | 0.30 | 0.30 | 54 | 1006.4 |
| 20260509190016 | 66 | 253 | 0.9 | 7.8 | 0.00 | 0.30 | 0.30 | 59 | 1006.3 |
| 20260509185513 | 66 | 235 | 0.9 | 7.8 | 0.00 | 0.30 | 0.30 | 62 | 1006.5 |
| 20260509185009 | 66 | 312 | 5.2 | 7.0 | 0.00 | 0.30 | 0.30 | 55 | 1006.6 |
| 20260509184508 | 67 | 213 | 7.0 | 8.7 | 0.00 | 0.30 | 0.30 | 54 | 1006.4 |
| 20260509184004 | 66 | 173 | 6.1 | 11.3 | 0.00 | 0.30 | 0.30 | 56 | 1006.7 |
| 20260509183459 | 66 | 268 | 5.2 | 9.6 | 0.00 | 0.30 | 0.30 | 57 | 1006.4 |
| 20260509182955 | 66 | 137 | 3.5 | 11.3 | 0.00 | 0.30 | 0.30 | 56 | 1006.6 |
| 20260509182452 | 66 | 212 | 3.5 | 7.8 | 0.00 | 0.30 | 0.30 | 56 | 1006.6 |
| 20260509181949 | 66 | 229 | 4.3 | 6.1 | 0.00 | 0.30 | 0.30 | 58 | 1006.8 |
| 20260509181447 | 66 | 226 | 5.2 | 8.7 | 0.00 | 0.30 | 0.30 | 59 | 1006.7 |
| 20260509180944 | 66 | 343 | 2.6 | 7.0 | 0.00 | 0.30 | 0.30 | 59 | 1007.0 |
| 20260509180440 | 66 | 289 | 5.2 | 7.0 | 0.00 | 0.30 | 0.30 | 61 | 1006.8 |
| 20260509175936 | 66 | 238 | 2.6 | 3.5 | 0.00 | 0.30 | 0.30 | 59 | 1006.7 |
| 20260509175427 | 66 | 237 | 3.5 | 7.0 | 0.00 | 0.30 | 0.30 | 62 | 1006.7 |
| 20260509174924 | 65 | 214 | 1.7 | 7.8 | 0.00 | 0.30 | 0.30 | 62 | 1006.7 |
| 20260509174420 | 65 | 247 | 2.6 | 7.8 | 0.00 | 0.30 | 0.30 | 63 | 1006.8 |
| 20260509173915 | 64 | 196 | 2.6 | 5.2 | 0.00 | 0.30 | 0.30 | 62 | 1006.8 |
| 20260509173409 | 65 | 238 | 2.6 | 7.8 | 0.00 | 0.30 | 0.30 | 61 | 1006.7 |
| 20260509172907 | 64 | 262 | 1.7 | 5.2 | 0.00 | 0.30 | 0.30 | 65 | 1006.4 |
| 20260509172403 | 65 | 261 | 5.2 | 8.7 | 0.00 | 0.30 | 0.30 | 63 | 1006.5 |
| 20260509171859 | 63 | 255 | 0.9 | 5.2 | 0.00 | 0.30 | 0.30 | 69 | 1006.6 |
| 20260509171355 | 63 | 231 | 2.6 | 7.8 | 0.00 | 0.30 | 0.30 | 68 | 1006.8 |
| 20260509170852 | 63 | 250 | 3.5 | 6.1 | 0.00 | 0.30 | 0.30 | 66 | 1006.9 |
| 20260509170347 | 63 | 283 | 1.7 | 3.5 | 0.00 | 0.30 | 0.30 | 68 | 1007.0 |
| 20260509165841 | 64 | 201 | 1.7 | 7.0 | 0.00 | 0.30 | 0.30 | 65 | 1006.9 |
| 20260509165331 | 65 | 194 | 2.6 | 3.5 | 0.00 | 0.30 | 0.30 | 68 | 1007.2 |
| 20260509164827 | 64 | 238 | 2.6 | 5.2 | 0.00 | 0.30 | 0.30 | 70 | 1007.0 |
| 20260509164324 | 64 | 226 | 1.7 | 3.5 | 0.00 | 0.30 | 0.30 | 68 | 1007.1 |
| 20260509163820 | 63 | 250 | 3.5 | 6.1 | 0.00 | 0.30 | 0.30 | 72 | 1007.2 |
| 20260509163316 | 62 | 186 | 1.7 | 7.0 | 0.00 | 0.30 | 0.30 | 73 | 1007.3 |
| 20260509162815 | 63 | 231 | 2.6 | 2.6 | 0.00 | 0.30 | 0.30 | 75 | 1007.3 |
| 20260509162309 | 62 | 203 | 1.7 | 6.1 | 0.00 | 0.30 | 0.30 | 77 | 1007.3 |
| 20260509161805 | 62 | 227 | 3.5 | 5.2 | 0.00 | 0.30 | 0.30 | 78 | 1007.5 |
| 20260509161301 | 62 | 185 | 3.5 | 5.2 | 0.00 | 0.30 | 0.30 | 76 | 1007.3 |
| 20260509160756 | 61 | 251 | 3.5 | 6.1 | 0.00 | 0.30 | 0.30 | 78 | 1007.4 |
| 20260509160248 | 61 | 271 | 5.2 | 7.0 | 0.00 | 0.30 | 0.30 | 77 | 1007.3 |
| 20260509155743 | 61 | 247 | 1.7 | 5.2 | 0.00 | 0.30 | 0.30 | 78 | 1007.0 |
| 20260509155240 | 62 | 259 | 1.7 | 3.5 | 0.00 | 0.30 | 0.30 | 77 | 1007.1 |
| 20260509154735 | 61 | 270 | 3.5 | 5.2 | 0.00 | 0.30 | 0.30 | 83 | 1007.4 |
| 20260509154233 | 60 | 214 | 2.6 | 6.1 | 0.00 | 0.30 | 0.30 | 80 | 1007.3 |
| 20260509153730 | 60 | 202 | 2.6 | 5.2 | 0.00 | 0.30 | 0.30 | 80 | 1007.2 |
| 20260509153226 | 60 | 284 | 2.6 | 6.1 | 0.00 | 0.30 | 0.30 | 83 | 1007.3 |
| 20260509152722 | 60 | 225 | 2.6 | 7.0 | 0.00 | 0.30 | 0.30 | 83 | 1007.0 |
| 20260509152219 | 59 | 258 | 0.9 | 3.5 | 0.00 | 0.30 | 0.30 | 85 | 1007.3 |
| 20260509151716 | 58 | 258 | 2.6 | 3.5 | 0.00 | 0.30 | 0.30 | 86 | 1007.2 |
| 20260509151213 | 58 | 238 | 1.7 | 3.5 | 0.00 | 0.30 | 0.30 | 87 | 1007.5 |
| 20260509150710 | 58 | 218 | 1.7 | 2.6 | 0.00 | 0.30 | 0.30 | 88 | 1007.6 |
| 20260509150209 | 57 | 241 | 0.9 | 3.5 | 0.00 | 0.30 | 0.30 | 90 | 1007.3 |
| 20260509145704 | 56 | 246 | 0.0 | 1.7 | 0.00 | 0.30 | 0.30 | 91 | 1007.4 |
| 20260509145200 | 56 | 161 | 1.7 | 3.5 | 0.00 | 0.30 | 0.30 | 91 | 1007.4 |
| 20260509144656 | 56 | 250 | 0.9 | 1.7 | 0.00 | 0.30 | 0.30 | 92 | 1007.4 |
| 20260509144154 | 56 | 236 | 0.9 | 3.5 | 0.00 | 0.30 | 0.30 | 93 | 1007.4 |
| 20260509143651 | 55 | 227 | 0.0 | 0.9 | 0.00 | 0.30 | 0.30 | 93 | 1007.5 |
| 20260509143148 | 55 | 228 | 0.0 | 0.9 | 0.00 | 0.30 | 0.30 | 94 | 1007.3 |
| 20260509142644 | 55 | 253 | 0.9 | 1.7 | 0.00 | 0.30 | 0.30 | 94 | 1007.7 |
| 20260509142141 | 55 | 220 | 0.0 | 0.9 | 0.00 | 0.30 | 0.30 | 94 | 1007.3 |
| 20260509141636 | 55 | 254 | 0.9 | 1.7 | 0.00 | 0.30 | 0.30 | 95 | 1007.1 |
| 20260509141132 | 54 | 216 | 1.7 | 2.6 | 0.00 | 0.30 | 0.30 | 95 | 1007.5 |
| 20260509140630 | 54 | 214 | 0.9 | 1.7 | 0.00 | 0.30 | 0.30 | 95 | 1007.1 |
| 20260509140128 | 54 | 247 | 2.6 | 3.5 | 0.00 | 0.30 | 0.30 | 96 | 1007.4 |
| 20260509135625 | 53 | 230 | 0.0 | 2.6 | 0.00 | 0.30 | 0.30 | 96 | 1007.3 |
| 20260509135123 | 53 | 218 | 0.9 | 1.7 | 0.00 | 0.30 | 0.30 | 97 | 1007.5 |
| 20260509134619 | 53 | 229 | 1.7 | 2.6 | 0.00 | 0.30 | 0.30 | 97 | 1007.3 |
| 20260509134117 | 53 | 226 | 0.9 | 2.6 | 0.00 | 0.30 | 0.30 | 97 | 1007.4 |
| 20260509133614 | 53 | 207 | 0.0 | 2.6 | 0.00 | 0.30 | 0.30 | 97 | 1007.5 |
| 20260509133111 | 53 | 195 | 1.7 | 3.5 | 0.00 | 0.30 | 0.30 | 97 | 1007.4 |
| 20260509132609 | 53 | 240 | 1.7 | 1.7 | 0.00 | 0.30 | 0.30 | 97 | 1007.4 |
| 20260509132107 | 53 | 210 | 1.7 | 1.7 | 0.00 | 0.30 | 0.30 | 98 | 1007.5 |
| 20260509131603 | 53 | 218 | 0.9 | 1.7 | 0.00 | 0.30 | 0.30 | 98 | 1007.7 |
| 20260509131100 | 53 | 241 | 0.9 | 1.7 | 0.00 | 0.30 | 0.30 | 98 | 1007.5 |
| 20260509130555 | 52 | 158 | 0.9 | 1.7 | 0.00 | 0.30 | 0.30 | 98 | 1007.4 |
| 20260509130053 | 52 | 221 | 0.9 | 1.7 | 0.00 | 0.30 | 0.30 | 98 | 1007.5 |
| 20260509125549 | 52 | 231 | 0.0 | 0.9 | 0.00 | 0.30 | 0.30 | 98 | 1007.8 |
| 20260509125046 | 52 | 251 | 0.9 | 1.7 | 0.00 | 0.30 | 0.30 | 98 | 1007.8 |
| 20260509124542 | 52 | 246 | 0.0 | 0.9 | 0.00 | 0.30 | 0.30 | 98 | 1007.7 |
| 20260509124040 | 52 | 241 | 0.0 | 0.9 | 0.00 | 0.30 | 0.30 | 98 | 1007.9 |
| 20260509123537 | 52 | 244 | 0.0 | 0.9 | 0.00 | 0.30 | 0.30 | 98 | 1007.9 |
| 20260509123033 | 52 | 211 | 0.9 | 1.7 | 0.00 | 0.30 | 0.30 | 98 | 1007.8 |
| 20260509122530 | 52 | 254 | 0.9 | 1.7 | 0.00 | 0.30 | 0.30 | 98 | 1007.8 |
| 20260509122027 | 52 | 241 | 0.0 | 0.0 | 0.00 | 0.30 | 0.30 | 98 | 1008.0 |
| 20260509121523 | 52 | 225 | 0.9 | 1.7 | 0.00 | 0.30 | 0.30 | 98 | 1007.7 |
| 20260509121021 | 51 | 230 | 0.0 | 0.9 | 0.00 | 0.30 | 0.30 | 99 | 1007.8 |
| 20260509120519 | 51 | 230 | 0.0 | 0.0 | 0.00 | 0.30 | 0.30 | 98 | 1007.9 |
| 20260509120017 | 51 | 232 | 0.0 | 0.9 | 0.00 | 0.30 | 0.30 | 99 | 1008.0 |
| 20260509115514 | 51 | 231 | 0.0 | 0.9 | 0.00 | 0.30 | 0.30 | 98 | 1007.8 |
| 20260509115012 | 51 | 218 | 0.0 | 0.9 | 0.00 | 0.30 | 0.30 | 98 | 1007.9 |
| 20260509114509 | 51 | 228 | 0.0 | 0.9 | 0.00 | 0.30 | 0.30 | 98 | 1007.8 |
| 20260509114009 | 51 | 215 | 0.9 | 0.9 | 0.00 | 0.30 | 0.30 | 98 | 1008.1 |
| 20260509113506 | 51 | 243 | 0.0 | 0.0 | 0.00 | 0.30 | 0.30 | 99 | 1008.0 |
| 20260509113004 | 51 | 239 | 0.0 | 0.9 | 0.00 | 0.30 | 0.30 | 98 | 1008.0 |
| 20260509112500 | 51 | 230 | 0.0 | 0.9 | 0.00 | 0.30 | 0.30 | 99 | 1007.8 |
| 20260509111956 | 51 | 234 | 0.0 | 0.0 | 0.00 | 0.30 | 0.30 | 98 | 1007.8 |
| 20260509111454 | 51 | 221 | 0.0 | 0.9 | 0.00 | 0.30 | 0.30 | 98 | 1007.8 |
| 20260509110951 | 51 | 238 | 0.0 | 0.9 | 0.00 | 0.30 | 0.30 | 98 | 1007.7 |
| 20260509110447 | 51 | 170 | 1.7 | 1.7 | 0.00 | 0.30 | 0.30 | 99 | 1007.6 |
| 20260509105945 | 50 | 207 | 0.0 | 0.9 | 0.00 | 0.30 | 0.30 | 99 | 1007.7 |
| 20260509105443 | 50 | 220 | 0.0 | 0.0 | 0.00 | 0.30 | 0.30 | 98 | 1007.5 |
| 20260509104940 | 50 | 219 | 0.0 | 1.7 | 0.00 | 0.30 | 0.30 | 98 | 1007.4 |
| 20260509104437 | 50 | 231 | 0.0 | 0.9 | 0.00 | 0.30 | 0.30 | 98 | 1007.6 |
| 20260509103934 | 50 | 223 | 0.0 | 0.9 | 0.00 | 0.30 | 0.30 | 98 | 1007.6 |
| 20260509103432 | 50 | 221 | 0.0 | 1.7 | 0.00 | 0.30 | 0.30 | 98 | 1007.7 |
| 20260509102930 | 50 | 229 | 0.0 | 0.0 | 0.00 | 0.30 | 0.30 | 98 | 1007.5 |
| 20260509102427 | 50 | 236 | 0.0 | 0.9 | 0.00 | 0.30 | 0.30 | 98 | 1007.7 |
| 20260509101923 | 50 | 241 | 0.0 | 0.0 | 0.07 | 0.30 | 0.30 | 98 | 1007.6 |
| 20260509101419 | 50 | 213 | 0.0 | 0.9 | 0.07 | 0.30 | 0.30 | 98 | 1007.7 |
| 20260509100917 | 50 | 225 | 0.0 | 0.0 | 0.00 | 0.29 | 0.29 | 98 | 1007.5 |
| 20260509100414 | 50 | 223 | 0.0 | 0.0 | 0.05 | 0.29 | 0.29 | 98 | 1007.7 |
| 20260509095910 | 50 | 217 | 0.0 | 1.7 | 0.05 | 0.29 | 0.29 | 98 | 1007.8 |
| 20260509095408 | 50 | 178 | 0.9 | 0.9 | 0.00 | 0.28 | 0.28 | 98 | 1007.9 |
| 20260509094905 | 50 | 203 | 0.0 | 0.0 | 0.00 | 0.28 | 0.28 | 98 | 1007.7 |
| 20260509094401 | 50 | 180 | 0.9 | 1.7 | 0.00 | 0.28 | 0.28 | 98 | 1007.7 |
| 20260509093859 | 50 | 226 | 0.0 | 2.6 | 0.00 | 0.28 | 0.28 | 98 | 1007.8 |
| 20260509093356 | 50 | 210 | 0.9 | 1.7 | 0.00 | 0.28 | 0.28 | 98 | 1007.8 |
| 20260509092855 | 50 | 162 | 0.9 | 1.7 | 0.00 | 0.28 | 0.28 | 98 | 1008.0 |
| 20260509092352 | 50 | 242 | 0.0 | 0.0 | 0.00 | 0.28 | 0.28 | 98 | 1008.1 |
| 20260509091850 | 50 | 227 | 0.0 | 0.9 | 0.00 | 0.28 | 0.28 | 98 | 1008.2 |
| 20260509091346 | 50 | 254 | 0.0 | 0.0 | 0.00 | 0.28 | 0.28 | 98 | 1008.0 |
| 20260509090844 | 50 | 200 | 0.9 | 1.7 | 0.00 | 0.28 | 0.28 | 98 | 1008.1 |
| 20260509090341 | 50 | 243 | 0.0 | 1.7 | 0.00 | 0.28 | 0.28 | 98 | 1008.2 |
| 20260509085838 | 50 | 192 | 1.7 | 1.7 | 0.00 | 0.28 | 0.28 | 98 | 1008.1 |
| 20260509085335 | 50 | 228 | 0.0 | 0.9 | 0.07 | 0.28 | 0.28 | 98 | 1008.2 |
| 20260509084826 | 50 | 233 | 0.0 | 0.0 | 0.12 | 0.28 | 0.28 | 98 | 1008.5 |
| 20260509084323 | 50 | 204 | 0.0 | 0.9 | 0.05 | 0.27 | 0.27 | 98 | 1008.3 |
| 20260509083821 | 50 | 227 | 0.0 | 0.0 | 0.07 | 0.26 | 0.26 | 98 | 1008.5 |
| 20260509083317 | 50 | 253 | 0.0 | 0.0 | 0.12 | 0.26 | 0.26 | 98 | 1008.5 |
| 20260509082814 | 50 | 235 | 0.0 | 0.0 | 0.05 | 0.25 | 0.25 | 98 | 1008.4 |
| 20260509082310 | 50 | 185 | 0.9 | 2.6 | 0.00 | 0.24 | 0.24 | 98 | 1008.2 |
| 20260509081809 | 50 | 236 | 0.0 | 0.0 | 0.00 | 0.24 | 0.24 | 98 | 1008.3 |
| 20260509081305 | 50 | 227 | 0.0 | 0.9 | 0.07 | 0.24 | 0.24 | 98 | 1008.5 |
| 20260509080803 | 50 | 220 | 0.0 | 1.7 | 0.07 | 0.24 | 0.24 | 98 | 1008.4 |
| 20260509080301 | 49 | 232 | 0.0 | 2.6 | 0.07 | 0.23 | 0.23 | 98 | 1008.5 |
| 20260509075759 | 49 | 233 | 0.0 | 0.0 | 0.12 | 0.23 | 0.23 | 98 | 1008.6 |
| 20260509075256 | 49 | 188 | 0.9 | 1.7 | 0.05 | 0.22 | 0.22 | 98 | 1008.6 |
| 20260509074753 | 49 | 210 | 0.9 | 1.7 | 0.07 | 0.21 | 0.21 | 98 | 1008.5 |
| 20260509074251 | 49 | 227 | 0.0 | 0.0 | 0.07 | 0.21 | 0.21 | 98 | 1008.6 |
| 20260509073747 | 49 | 220 | 0.9 | 0.9 | 0.05 | 0.20 | 0.20 | 98 | 1008.5 |
| 20260509073243 | 49 | 222 | 0.0 | 1.7 | 0.07 | 0.19 | 0.19 | 98 | 1008.6 |
| 20260509072739 | 49 | 222 | 0.0 | 0.9 | 0.12 | 0.19 | 0.19 | 98 | 1008.7 |
| 20260509072236 | 49 | 232 | 0.0 | 1.7 | 0.12 | 0.18 | 0.18 | 98 | 1008.4 |
| 20260509071733 | 49 | 192 | 0.0 | 1.7 | 0.12 | 0.17 | 0.17 | 98 | 1008.4 |
| 20260509071230 | 49 | 211 | 0.9 | 2.6 | 0.12 | 0.16 | 0.16 | 98 | 1008.8 |
| 20260509070727 | 49 | 236 | 0.0 | 0.9 | 0.12 | 0.15 | 0.15 | 98 | 1008.6 |
| 20260509070224 | 49 | 217 | 0.0 | 0.9 | 0.05 | 0.14 | 0.14 | 98 | 1008.7 |
| 20260509065720 | 49 | 131 | 0.0 | 0.0 | 0.00 | 0.13 | 0.13 | 98 | 1008.8 |
| 20260509065216 | 49 | 242 | 0.0 | 0.0 | 0.07 | 0.13 | 0.13 | 98 | 1008.5 |
| 20260509064713 | 49 | 221 | 0.0 | 0.9 | 0.05 | 0.12 | 0.12 | 98 | 1008.6 |
| 20260509064210 | 49 | 231 | 0.0 | 1.7 | 0.12 | 0.12 | 0.12 | 98 | 1008.6 |
| 20260509063708 | 49 | 235 | 0.0 | 0.9 | 0.00 | 0.10 | 0.10 | 98 | 1008.7 |
| 20260509063204 | 49 | 221 | 0.9 | 0.9 | 0.07 | 0.10 | 0.10 | 98 | 1008.8 |
| 20260509062701 | 49 | 229 | 0.0 | 0.9 | 0.07 | 0.10 | 0.10 | 98 | 1008.7 |
| 20260509062158 | 49 | 222 | 1.7 | 2.6 | 0.05 | 0.09 | 0.09 | 98 | 1008.8 |
| 20260509061655 | 49 | 202 | 0.9 | 1.7 | 0.12 | 0.09 | 0.09 | 98 | 1008.9 |
| 20260509061153 | 49 | 205 | 1.7 | 1.7 | 0.12 | 0.08 | 0.08 | 98 | 1009.0 |
| 20260509060650 | 49 | 213 | 0.9 | 1.7 | 0.05 | 0.07 | 0.07 | 98 | 1009.2 |
| 20260509060146 | 49 | 164 | 0.0 | 0.0 | 0.00 | 0.06 | 0.06 | 98 | 1009.3 |
| 20260509055642 | 49 | 218 | 0.0 | 0.0 | 0.07 | 0.06 | 0.06 | 98 | 1009.2 |
| 20260509055138 | 49 | 195 | 0.9 | 1.7 | 0.07 | 0.06 | 0.06 | 98 | 1009.5 |
| 20260509054635 | 49 | 157 | 1.7 | 2.6 | 0.05 | 0.05 | 0.05 | 98 | 1009.3 |
| 20260509054132 | 49 | 185 | 1.7 | 1.7 | 0.05 | 0.05 | 0.05 | 98 | 1009.2 |
| 20260509053631 | 49 | 200 | 0.9 | 1.7 | 0.07 | 0.04 | 0.04 | 97 | 1009.3 |
| 20260509053127 | 49 | 228 | 0.0 | 0.0 | 0.07 | 0.04 | 0.04 | 97 | 1009.6 |
| 20260509052625 | 49 | 187 | 0.0 | 1.7 | 0.00 | 0.03 | 0.03 | 97 | 1009.6 |
| 20260509052122 | 49 | 202 | 0.9 | 2.6 | 0.00 | 0.03 | 0.03 | 97 | 1009.9 |
| 20260509051620 | 50 | 186 | 1.7 | 1.7 | 0.00 | 0.03 | 0.03 | 97 | 1009.8 |
| 20260509051117 | 50 | 145 | 0.9 | 1.7 | 0.00 | 0.03 | 0.03 | 97 | 1009.8 |
| 20260509050614 | 50 | 202 | 0.9 | 1.7 | 0.00 | 0.03 | 0.03 | 97 | 1009.9 |
| 20260509050110 | 50 | 161 | 0.9 | 1.7 | 0.00 | 0.03 | 0.03 | 97 | 1009.6 |
| 20260509045608 | 50 | 169 | 0.9 | 2.6 | 0.00 | 0.03 | 0.03 | 97 | 1010.0 |
| 20260509045105 | 50 | 170 | 1.7 | 1.7 | 0.05 | 0.03 | 0.03 | 97 | 1009.9 |
| 20260509044602 | 50 | 209 | 0.0 | 0.9 | 0.05 | 0.03 | 0.03 | 97 | 1010.0 |
| 20260509044059 | 50 | 233 | 0.0 | 0.0 | 0.07 | 0.02 | 0.02 | 97 | 1009.8 |
| 20260509043555 | 50 | 226 | 0.0 | 0.9 | 0.07 | 0.02 | 0.02 | 97 | 1010.0 |
| 20260509043045 | 50 | 191 | 0.0 | 1.7 | 0.00 | 0.01 | 0.01 | 97 | 1010.0 |
| 20260509042541 | 50 | 133 | 0.9 | 1.7 | 0.05 | 0.01 | 0.01 | 97 | 1010.2 |
| 20260509042037 | 50 | 231 | 0.0 | 0.9 | 0.00 | 0.00 | 0.00 | 97 | 1010.3 |
| 20260509041534 | 50 | 212 | 0.0 | 0.0 | 0.00 | 0.00 | 0.00 | 97 | 1010.2 |
| 20260509041032 | 50 | 174 | 1.7 | 1.7 | 0.00 | 0.00 | 0.00 | 97 | 1010.6 |
| 20260509040530 | 50 | 230 | 0.0 | 1.7 | 0.07 | 0.00 | 0.00 | 97 | 1010.4 |
| 20260509040027 | 50 | 178 | 3.5 | 3.5 | 0.12 | 0.47 | 0.47 | 97 | 1010.2 |
| 20260509035523 | 50 | 267 | 0.9 | 0.9 | 0.05 | 0.46 | 0.46 | 97 | 1010.5 |
| 20260509035015 | 50 | 196 | 0.9 | 1.7 | 0.07 | 0.45 | 0.45 | 97 | 1010.5 |
| 20260509034513 | 50 | 243 | 0.9 | 1.7 | 0.07 | 0.44 | 0.44 | 97 | 1010.7 |
| 20260509034010 | 50 | 231 | 2.6 | 2.6 | 0.12 | 0.44 | 0.44 | 97 | 1010.8 |
| 20260509033506 | 50 | 234 | 0.0 | 1.7 | 0.00 | 0.42 | 0.42 | 97 | 1010.6 |
| 20260509032957 | 50 | 209 | 1.7 | 1.7 | 0.07 | 0.42 | 0.42 | 97 | 1010.7 |
| 20260509032455 | 50 | 243 | 0.0 | 0.0 | 0.07 | 0.42 | 0.42 | 97 | 1010.5 |